createdAt,value
2023-01-25T00:04:21.739Z,36.60
2023-01-25T00:09:15.439Z,34.40
2023-01-25T00:14:08.641Z,39.00
2023-01-25T00:19:01.424Z,37.60
2023-01-25T00:23:54.593Z,35.70
2023-01-25T00:28:51.940Z,32.10
2023-01-25T00:33:57.112Z,44.30
2023-01-25T00:38:50.148Z,41.80
2023-01-25T00:43:44.190Z,37.10
2023-01-25T00:48:37.024Z,31.50
2023-01-25T00:53:30.037Z,23.30
2023-01-25T00:58:23.181Z,31.20
2023-01-25T01:03:17.057Z,31.00
2023-01-25T01:08:13.015Z,28.30
2023-01-25T01:13:05.809Z,26.30
2023-01-25T01:17:58.606Z,23.90
2023-01-25T01:22:55.284Z,20.60
2023-01-25T01:27:48.210Z,16.60
2023-01-25T01:32:41.152Z,16.00
2023-01-25T01:37:34.215Z,19.20
2023-01-25T01:42:27.073Z,18.50
2023-01-25T01:47:26.809Z,15.90
2023-01-25T01:52:28.188Z,18.40
2023-01-25T01:57:26.176Z,19.50
2023-01-25T02:02:19.966Z,18.60
2023-01-25T02:07:25.125Z,20.60
2023-01-25T02:12:19.412Z,17.90
2023-01-25T02:17:13.521Z,22.90
2023-01-25T02:22:13.506Z,23.10
2023-01-25T02:27:07.989Z,20.00
2023-01-25T02:32:03.823Z,15.30
2023-01-25T02:36:56.837Z,19.50
2023-01-25T02:41:49.763Z,19.40
2023-01-25T02:46:45.100Z,19.00
2023-01-25T02:51:42.007Z,19.40
2023-01-25T02:56:35.696Z,22.50
2023-01-25T03:01:28.631Z,20.40
2023-01-25T03:06:21.646Z,18.60
2023-01-25T03:11:14.559Z,18.80
2023-01-25T03:16:11.147Z,17.10
2023-01-25T03:21:13.353Z,17.10
2023-01-25T03:26:18.544Z,15.40
2023-01-25T03:31:26.682Z,18.50
2023-01-25T03:36:20.040Z,16.20
2023-01-25T03:41:14.177Z,17.10
2023-01-25T03:46:07.215Z,14.40
2023-01-25T03:51:01.383Z,10.80
2023-01-25T03:55:56.402Z,11.40
2023-01-25T04:00:49.293Z,9.10
2023-01-25T04:05:42.178Z,8.20
2023-01-25T04:10:35.874Z,9.30
2023-01-25T04:15:29.599Z,7.40
2023-01-25T04:20:23.396Z,8.80
2023-01-25T04:25:16.463Z,6.20
2023-01-25T04:30:14.188Z,6.50
2023-01-25T04:35:07.691Z,8.20
2023-01-25T04:40:01.999Z,5.10
2023-01-25T04:44:57.661Z,6.40
2023-01-25T04:49:50.634Z,6.80
2023-01-25T04:54:45.630Z,7.90
2023-01-25T04:59:38.573Z,5.10
2023-01-25T05:04:31.435Z,7.20
2023-01-25T05:09:24.863Z,7.80
2023-01-25T05:14:17.692Z,7.80
2023-01-25T05:19:12.310Z,10.50
2023-01-25T05:24:22.826Z,9.60
2023-01-25T05:29:15.747Z,7.70
2023-01-25T05:34:16.731Z,10.60
2023-01-25T05:39:09.649Z,10.10
2023-01-25T05:44:02.653Z,12.50
2023-01-25T05:48:55.959Z,9.40
2023-01-25T05:53:50.295Z,12.10
2023-01-25T05:58:43.830Z,9.50
2023-01-25T06:03:36.822Z,11.90
2023-01-25T06:08:31.445Z,11.90
2023-01-25T06:13:25.451Z,12.00
2023-01-25T06:18:18.310Z,14.80
2023-01-25T06:23:31.937Z,17.90
2023-01-25T06:28:24.712Z,18.50
2023-01-25T06:33:17.568Z,21.20
2023-01-25T06:38:11.348Z,20.60
2023-01-25T06:43:11.523Z,33.90
2023-01-25T06:48:05.230Z,23.00
2023-01-25T06:52:58.040Z,26.40
2023-01-25T06:57:50.923Z,30.90
2023-01-25T07:02:44.940Z,30.70
2023-01-25T07:07:37.801Z,35.90
2023-01-25T07:12:31.279Z,29.30
2023-01-25T07:17:24.111Z,33.30
2023-01-25T07:22:18.052Z,27.80
2023-01-25T07:27:11.274Z,31.70
2023-01-25T07:32:04.131Z,33.10
2023-01-25T07:36:57.348Z,32.10
2023-01-25T07:41:50.156Z,31.20
2023-01-25T07:46:45.208Z,32.20
2023-01-25T07:51:37.984Z,29.10
2023-01-25T07:56:36.684Z,32.50
2023-01-25T08:01:31.200Z,36.90
2023-01-25T08:06:27.672Z,42.30
2023-01-25T08:11:27.257Z,36.50
2023-01-25T08:16:22.830Z,32.50
2023-01-25T08:21:15.625Z,34.60
2023-01-25T08:26:11.258Z,36.00
2023-01-25T08:31:12.085Z,31.20
2023-01-25T08:36:06.167Z,30.20
2023-01-25T08:41:10.147Z,30.30
2023-01-25T08:46:03.207Z,27.50
2023-01-25T08:50:56.053Z,26.80
2023-01-25T08:55:49.039Z,28.30
2023-01-25T09:00:42.475Z,28.20
2023-01-25T09:05:36.769Z,27.80
2023-01-25T09:10:29.716Z,27.10
2023-01-25T09:15:22.927Z,26.20
2023-01-25T09:20:16.122Z,24.60
2023-01-25T09:25:10.028Z,28.70
2023-01-25T09:30:04.212Z,26.30
2023-01-25T09:34:57.350Z,31.50
2023-01-25T09:39:50.282Z,33.80
2023-01-25T09:45:07.754Z,27.70
2023-01-25T09:50:21.273Z,31.50
2023-01-25T09:55:17.448Z,26.50
2023-01-25T10:00:29.023Z,30.60
2023-01-25T10:05:29.477Z,24.70
2023-01-25T10:10:34.475Z,30.80
2023-01-25T10:15:37.203Z,21.80
2023-01-25T10:20:35.909Z,25.80
2023-01-25T10:25:47.121Z,30.80
2023-01-25T10:30:49.401Z,31.60
2023-01-25T10:35:47.521Z,35.20
2023-01-25T10:40:45.873Z,34.40
2023-01-25T10:45:43.298Z,33.10
2023-01-25T10:55:35.299Z,35.10
2023-01-25T11:00:44.326Z,26.10
2023-01-25T11:05:41.944Z,30.80
2023-01-25T11:15:29.418Z,35.20
2023-01-25T11:20:22.607Z,39.60
2023-01-25T11:25:31.487Z,33.10
2023-01-25T11:30:24.282Z,34.20
2023-01-25T11:35:22.781Z,38.70
2023-01-25T11:40:48.472Z,37.40
2023-01-25T11:45:42.948Z,39.30
2023-01-25T11:50:47.349Z,43.00
2023-01-25T11:56:14.554Z,36.30
2023-01-25T12:01:40.739Z,42.90
2023-01-25T12:07:33.260Z,42.20
2023-01-25T12:12:38.192Z,41.40
2023-01-25T12:17:53.084Z,47.90
2023-01-25T12:23:10.627Z,42.90
2023-01-25T12:28:24.894Z,39.10
2023-01-25T12:33:34.001Z,40.90
2023-01-25T12:38:42.908Z,41.60
2023-01-25T12:43:49.047Z,43.40
2023-01-25T12:48:48.710Z,42.80
2023-01-25T12:53:47.095Z,45.10
2023-01-25T12:58:49.919Z,40.50
2023-01-25T13:03:58.209Z,42.60
2023-01-25T13:09:08.650Z,42.70
2023-01-25T13:14:20.702Z,41.80
2023-01-25T13:19:29.752Z,33.30
2023-01-25T13:24:36.595Z,37.20
2023-01-25T13:29:36.035Z,42.50
2023-01-25T13:34:39.418Z,34.20
2023-01-25T13:39:32.531Z,38.30
2023-01-25T13:44:28.682Z,36.40
2023-01-25T13:49:28.801Z,38.10
2023-01-25T13:54:21.659Z,38.30
2023-01-25T13:59:28.457Z,35.80
2023-01-25T14:04:21.628Z,39.20
2023-01-25T14:09:20.705Z,35.50
2023-01-25T14:14:27.068Z,37.20
2023-01-25T14:19:29.029Z,40.30
2023-01-25T14:24:21.893Z,43.40
2023-01-25T14:29:32.737Z,40.50
2023-01-25T14:34:28.006Z,42.30
2023-01-25T14:39:30.562Z,38.40
2023-01-25T14:44:24.079Z,45.10
2023-01-25T14:49:26.585Z,46.90
2023-01-25T14:54:45.794Z,43.50
2023-01-25T14:59:40.540Z,40.60
2023-01-25T15:04:35.385Z,42.50
2023-01-25T15:09:43.488Z,47.90
2023-01-25T15:19:53.693Z,47.00
2023-01-25T15:24:50.377Z,48.60
2023-01-25T15:29:50.857Z,42.10
2023-01-25T15:34:43.647Z,45.00
2023-01-25T15:39:36.555Z,45.20
2023-01-25T15:44:29.361Z,38.30
2023-01-25T15:49:28.820Z,41.70
2023-01-25T15:54:22.085Z,46.40
2023-01-25T15:59:18.587Z,36.40
2023-01-25T16:04:13.610Z,35.20
2023-01-25T16:09:26.885Z,43.30
2023-01-25T16:14:20.377Z,47.20
2023-01-25T16:19:15.503Z,46.90
2023-01-25T16:24:08.864Z,49.90
2023-01-25T16:29:01.720Z,47.70
2023-01-25T16:33:54.526Z,48.10
2023-01-25T16:38:47.676Z,46.50
2023-01-25T16:43:49.527Z,48.70
2023-01-25T16:48:42.344Z,49.40
2023-01-25T16:53:35.110Z,45.50
2023-01-25T16:58:27.929Z,48.30
2023-01-25T17:03:20.771Z,48.00
2023-01-25T17:08:13.548Z,47.30
2023-01-25T17:13:08.814Z,48.10
2023-01-25T17:18:01.562Z,53.80
2023-01-25T17:22:54.377Z,55.40
2023-01-25T17:27:47.382Z,49.80
2023-01-25T17:32:41.049Z,45.40
2023-01-25T17:37:34.658Z,53.50
2023-01-25T17:42:27.507Z,49.40
2023-01-25T17:47:20.361Z,50.50
2023-01-25T17:52:13.208Z,51.00
2023-01-25T17:57:06.005Z,47.20
2023-01-25T18:01:58.982Z,46.10
2023-01-25T18:06:51.813Z,44.40
2023-01-25T18:11:45.082Z,47.50
2023-01-25T18:16:40.277Z,42.00
2023-01-25T18:21:34.567Z,44.40
2023-01-25T18:26:34.471Z,44.00
2023-01-25T18:31:27.504Z,43.40
2023-01-25T18:36:20.686Z,43.10
2023-01-25T18:41:13.962Z,46.50
2023-01-25T18:46:06.965Z,42.00
2023-01-25T18:51:14.301Z,41.80
2023-01-25T18:56:11.282Z,42.80
2023-01-25T19:01:15.097Z,38.30
2023-01-25T19:06:08.439Z,44.70
2023-01-25T19:11:08.246Z,42.00
2023-01-25T19:16:06.420Z,40.60
2023-01-25T19:20:59.367Z,49.30
2023-01-25T19:25:56.516Z,47.40
2023-01-25T19:30:49.425Z,43.30
2023-01-25T19:35:42.382Z,44.70
2023-01-25T19:40:35.614Z,44.90
2023-01-25T19:45:28.593Z,43.70
2023-01-25T19:50:21.389Z,45.70
2023-01-25T19:55:14.284Z,45.60
2023-01-25T20:00:08.835Z,49.60
2023-01-25T20:05:01.690Z,44.10
2023-01-25T20:09:54.808Z,40.10
2023-01-25T20:14:47.879Z,50.30
2023-01-25T20:19:40.807Z,50.60
2023-01-25T20:24:33.599Z,52.30
2023-01-25T20:29:28.939Z,51.50
2023-01-25T20:34:24.571Z,53.60
2023-01-25T20:39:20.576Z,51.20
2023-01-25T20:44:15.635Z,49.80
2023-01-25T20:49:16.104Z,56.60
2023-01-25T20:54:09.060Z,50.40
2023-01-25T20:59:01.858Z,44.90
2023-01-25T21:03:56.861Z,52.30
2023-01-25T21:08:50.095Z,44.50
2023-01-25T21:13:43.378Z,52.20
2023-01-25T21:18:41.268Z,49.60
2023-01-25T21:23:35.237Z,46.00
2023-01-25T21:28:29.257Z,47.20
2023-01-25T21:33:22.087Z,43.90
2023-01-25T21:38:15.381Z,47.60
2023-01-25T21:43:08.191Z,48.00
2023-01-25T21:48:01.965Z,50.60
2023-01-25T21:52:54.872Z,45.30
2023-01-25T21:57:47.615Z,48.00
2023-01-25T22:02:40.834Z,50.30
2023-01-25T22:07:33.840Z,54.00
2023-01-25T22:12:26.660Z,43.30
2023-01-25T22:17:22.986Z,49.50
2023-01-25T22:22:16.056Z,45.40
2023-01-25T22:27:18.480Z,51.10
2023-01-25T22:32:11.965Z,49.00
2023-01-25T22:37:04.952Z,51.20
2023-01-25T22:41:58.227Z,51.90
2023-01-25T22:46:53.042Z,49.60
2023-01-25T22:51:45.974Z,52.20
2023-01-25T22:56:38.817Z,57.40
2023-01-25T23:01:35.695Z,54.40
2023-01-25T23:06:34.518Z,47.30
2023-01-25T23:11:35.827Z,58.80
2023-01-25T23:16:28.677Z,58.80
2023-01-25T23:21:24.017Z,54.40
2023-01-25T23:26:17.791Z,58.30
2023-01-25T23:31:18.321Z,57.30
2023-01-25T23:36:13.796Z,57.60
2023-01-25T23:41:07.613Z,59.60
2023-01-25T23:46:00.451Z,64.30
2023-01-25T23:50:54.464Z,59.20
2023-01-25T23:56:02.392Z,68.30
